Wardell, Missouri
Current Conditions -  °F | °C
As of 11:10 AM on Thursday 27 Nov 2014 (Local Time) from KHKA Reporting Station
Overcast Overcast  
Wind Chill: 50°   Ceiling: 3000
Heat Index: 50°   Visibility: 10mi
Dew Point: 32°   Wind: 10mph
Humidity: 50%   Direction: 350°N
Pressure: 30.51"   Gusts: NA
Location:  36.35°N, 89.82°W
Report Text: KHKA 271710Z AUTO 35009KT 10SM OVC030 10/00 A3051 RMK AO2 T01000000
Loading
Personal Weather Stations






























Interactive Weather Map New forecast layout! Learn more

10-Day Weather Forecast

Advertisements
Track Severe Weather on mobile